Santa Paula, CA

6:25 AM PDT on April 19, 2015 (GMT -0700)
Santa Paula | | Change Station
CLOSE
Current Station
Personal Weather Station
Location: Santa Paula, CA
Elevation: 377 ft
Nearby Weather Stations

Elev 377 ft 34.37 °N, 119.06 °W | Updated 0 second ago

Mostly Cloudy
Mostly Cloudy
43.4 °F
Feels Like 43 °F
N
2.0
Wind Variable Wind from WNW
Gusts 2.0 mph

Today
High -- | Low -- °F
--% Chance of Precip.
Yesterday
High -- | Low -- °F
Precip. -- in
6:20 AM 7:31 PM
New Moon, 1% visible
Pressure 29.98 in
Visibility 4.0 miles
Clouds Overcast 300 ft
Windchill 43 °F
Dew Point 24 °F
Humidity 45%
Rainfall 0.00 in
Snow Depth Not available.
UV 0 out of 12
Pollen 9.30 out of 12
Air Quality Not available.
Flu Activity Sporadic
METAR KCMA 191255Z AUTO 05004KT 4SM BR OVC003 12/09 A2995 RMK AO2 SLP150 T01170094

More Conditions Fewer Conditions

Pressure 29.98 in
Visibility 4.0 miles
Clouds Overcast 300 ft
Windchill 43 °F
Dew Point 24 °F
Humidity 45%
Rainfall 0.00 in
Snow Depth Not available.
UV 0 out of 12
Pollen 9.30 out of 12
Air Quality Not available.
Flu Activity Sporadic
METAR KCMA 191255Z AUTO 05004KT 4SM BR OVC003 12/09 A2995 RMK AO2 SLP150 T01170094

More Conditions Fewer Conditions

10-Day Weather Forecast

Almanac

Astronomy

Apr. 19, 2015 Rise Set
Actual Time
Civil Twilight
Nautical Twilight
Astronomical Twilight
Moon
Length of Visible Light
Length of Day
Tomorrow will be .
, % of the Moon is Illuminated

Today's Extremes

State Highs State Lows

Community

WunderPhotos

Upload Photos

1,814,791 photos uploaded!

WunderBlogs® & News

Nearby

Air Quality

  Air Quality AQ Index Pollutant
Not available.

Snow Depth

Station Depth Elevation

Earthquake Activity

City Distance Mag. Time & Date
Minimum magnitude displayed is 2.5.

Coastal Water Temperatures

Place Temperature

Stations

Nearby Weather Stations

Station Location Temp. Windchill Dew Point Humidity Wind Precip. Elev Updated Type